createdAt,value
2023-01-02T00:00:47.511Z,100385.81
2023-01-02T00:03:19.872Z,100382.47
2023-01-02T00:05:51.250Z,100377.66
2023-01-02T00:08:26.854Z,100370.38
2023-01-02T00:11:05.481Z,100381.38
2023-01-02T00:13:35.893Z,100380.13
2023-01-02T00:16:07.200Z,100377.66
2023-01-02T00:18:41.575Z,100384.84
2023-01-02T00:21:11.898Z,100380.75
2023-01-02T00:23:41.245Z,100377.63
2023-01-02T00:26:11.524Z,100363.97
2023-01-02T00:28:40.299Z,100350.81
2023-01-02T00:31:12.764Z,100351.78
2023-01-02T00:33:47.211Z,100356.25
2023-01-02T00:36:24.507Z,100354.88
2023-01-02T00:38:56.405Z,100344.25
2023-01-02T00:41:26.069Z,100348.41
2023-01-02T00:43:59.812Z,100335.91
2023-01-02T00:46:31.586Z,100337.34
2023-01-02T00:49:03.893Z,100338.75
2023-01-02T00:51:32.827Z,100336.47
2023-01-02T00:54:02.094Z,100341.06
2023-01-02T00:56:35.040Z,100334.13
2023-01-02T00:59:09.100Z,100343.19
2023-01-02T01:01:40.204Z,100333.84
2023-01-02T01:04:12.846Z,100323.13
2023-01-02T01:06:42.113Z,100327.63
2023-01-02T01:09:11.908Z,100324.97
2023-01-02T01:11:40.815Z,100330.91
2023-01-02T01:14:10.627Z,100328.91
2023-01-02T01:16:40.426Z,100327.63
2023-01-02T01:19:17.799Z,100327.66
2023-01-02T01:21:47.086Z,100319.31
2023-01-02T01:24:27.359Z,100317.94
2023-01-02T01:27:06.528Z,100312.69
2023-01-02T01:29:36.829Z,100311.91
2023-01-02T01:32:07.839Z,100319.09
2023-01-02T01:34:44.840Z,100309.69
2023-01-02T01:37:13.831Z,100307.28
2023-01-02T01:39:45.940Z,100314.22
2023-01-02T01:42:25.310Z,100313.00
2023-01-02T01:44:55.119Z,100306.50
2023-01-02T01:47:32.932Z,100302.69
2023-01-02T01:50:10.022Z,100312.72
2023-01-02T01:52:43.764Z,100307.31
2023-01-02T01:55:19.238Z,100305.06
2023-01-02T01:57:56.065Z,100298.38
2023-01-02T02:00:27.516Z,100283.03
2023-01-02T02:03:00.299Z,100286.97
2023-01-02T02:05:33.852Z,100289.03
2023-01-02T02:08:10.093Z,100282.28
2023-01-02T02:10:39.176Z,100283.44
2023-01-02T02:13:11.334Z,100272.63
2023-01-02T02:15:50.720Z,100273.34
2023-01-02T02:18:32.675Z,100286.47
2023-01-02T02:21:13.094Z,100276.72
2023-01-02T02:24:25.557Z,100275.78
2023-01-02T02:27:09.247Z,100268.72
2023-01-02T02:30:17.847Z,100263.91
2023-01-02T02:33:18.670Z,100263.31
2023-01-02T02:36:06.903Z,100254.16
2023-01-02T02:39:01.638Z,100264.28
2023-01-02T02:41:35.465Z,100262.56
2023-01-02T02:44:12.766Z,100262.94
2023-01-02T02:46:52.317Z,100262.13
2023-01-02T02:49:34.749Z,100254.50
2023-01-02T02:52:12.075Z,100254.00
2023-01-02T02:54:44.999Z,100253.72
2023-01-02T02:57:16.582Z,100245.06
2023-01-02T02:59:47.603Z,100235.13
2023-01-02T03:02:27.811Z,100223.16
2023-01-02T03:05:01.873Z,100216.28
2023-01-02T03:07:40.775Z,100223.50
2023-01-02T03:10:22.867Z,100228.00
2023-01-02T03:12:59.680Z,100226.41
2023-01-02T03:15:33.721Z,100226.56
2023-01-02T03:18:12.113Z,100229.63
2023-01-02T03:20:48.310Z,100233.88
2023-01-02T03:23:25.464Z,100237.78
2023-01-02T03:25:55.034Z,100228.41
2023-01-02T03:28:33.943Z,100228.19
2023-01-02T03:31:04.378Z,100237.22
2023-01-02T03:33:39.827Z,100242.88
2023-01-02T03:36:12.123Z,100245.53
2023-01-02T03:38:45.521Z,100239.75
2023-01-02T03:41:20.534Z,100233.19
2023-01-02T03:43:56.961Z,100232.91
2023-01-02T03:46:38.583Z,100236.72
2023-01-02T03:49:14.524Z,100236.44
2023-01-02T03:51:46.564Z,100237.06
2023-01-02T03:54:19.352Z,100241.63
2023-01-02T03:56:58.108Z,100228.41
2023-01-02T03:59:35.464Z,100230.91
2023-01-02T04:02:16.929Z,100226.19
2023-01-02T04:05:00.138Z,100229.75
2023-01-02T04:07:50.219Z,100234.72
2023-01-02T04:10:22.630Z,100230.91
2023-01-02T04:12:55.120Z,100225.06
2023-01-02T04:15:26.432Z,100229.63
2023-01-02T04:18:03.708Z,100229.22
2023-01-02T04:20:34.662Z,100227.59
2023-01-02T04:23:27.904Z,100225.03
2023-01-02T04:26:00.999Z,100241.22
2023-01-02T04:28:34.410Z,100241.34
2023-01-02T04:31:07.623Z,100237.88
2023-01-02T04:33:49.608Z,100235.69
2023-01-02T04:36:21.000Z,100233.16
2023-01-02T04:38:52.954Z,100235.84
2023-01-02T04:41:27.398Z,100237.59
2023-01-02T04:44:00.606Z,100233.38
2023-01-02T04:46:38.496Z,100227.19
2023-01-02T04:49:07.703Z,100236.84
2023-01-02T04:51:40.373Z,100221.16
2023-01-02T04:54:18.950Z,100227.94
2023-01-02T04:56:47.023Z,100237.44
2023-01-02T04:59:25.877Z,100230.47
2023-01-02T05:01:55.473Z,100234.13
2023-01-02T05:04:25.620Z,100232.19
2023-01-02T05:06:59.068Z,100234.09
2023-01-02T05:09:38.652Z,100236.09
2023-01-02T05:12:07.943Z,100229.09
2023-01-02T05:14:49.129Z,100227.47
2023-01-02T05:17:22.944Z,100241.81
2023-01-02T05:19:54.788Z,100243.53
2023-01-02T05:22:40.915Z,100247.00
2023-01-02T05:25:17.683Z,100239.44
2023-01-02T05:27:49.083Z,100245.28
2023-01-02T05:30:18.532Z,100251.38
2023-01-02T05:32:47.877Z,100244.94
2023-01-02T05:35:19.780Z,100246.34
2023-01-02T05:37:51.741Z,100241.56
2023-01-02T05:40:21.399Z,100235.13
2023-01-02T05:42:52.755Z,100241.13
2023-01-02T05:45:22.084Z,100236.56
2023-01-02T05:47:53.190Z,100245.38
2023-01-02T05:50:24.449Z,100247.94
2023-01-02T05:52:53.686Z,100256.75
2023-01-02T05:55:26.549Z,100262.31
2023-01-02T05:57:56.234Z,100253.22
2023-01-02T06:00:26.939Z,100252.22
2023-01-02T06:02:57.693Z,100255.41
2023-01-02T06:05:29.958Z,100252.06
2023-01-02T06:07:58.496Z,100256.84
2023-01-02T06:10:38.580Z,100253.50
2023-01-02T06:13:10.075Z,100247.06
2023-01-02T06:15:39.492Z,100250.69
2023-01-02T06:18:11.845Z,100249.72
2023-01-02T06:20:41.359Z,100254.66
2023-01-02T06:23:22.222Z,100249.81
2023-01-02T06:25:54.175Z,100254.94
2023-01-02T06:28:25.868Z,100248.41
2023-01-02T06:31:01.955Z,100252.06
2023-01-02T06:33:32.839Z,100250.78
2023-01-02T06:36:04.624Z,100254.66
2023-01-02T06:38:35.417Z,100263.72
2023-01-02T06:41:19.043Z,100265.63
2023-01-02T06:43:55.401Z,100270.09
2023-01-02T06:46:25.650Z,100260.81
2023-01-02T06:48:54.272Z,100258.03
2023-01-02T06:51:24.923Z,100255.13
2023-01-02T06:53:53.271Z,100260.41
2023-01-02T06:56:34.163Z,100257.31
2023-01-02T06:59:04.778Z,100256.75
2023-01-02T07:01:34.782Z,100246.34
2023-01-02T07:04:07.341Z,100244.50
2023-01-02T07:06:37.761Z,100242.81
2023-01-02T07:09:09.081Z,100243.41
2023-01-02T07:11:39.945Z,100251.03
2023-01-02T07:14:10.552Z,100252.41
2023-01-02T07:16:42.338Z,100254.56
2023-01-02T07:19:15.249Z,100255.63
2023-01-02T07:21:44.613Z,100251.31
2023-01-02T07:24:18.062Z,100251.53
2023-01-02T07:26:56.898Z,100260.34
2023-01-02T07:29:29.151Z,100259.59
2023-01-02T07:31:58.500Z,100267.47
2023-01-02T07:34:34.771Z,100269.75
2023-01-02T07:37:09.279Z,100277.41
2023-01-02T07:39:41.143Z,100275.41
2023-01-02T07:42:14.089Z,100254.75
2023-01-02T07:44:45.661Z,100267.16
2023-01-02T07:47:17.224Z,100263.81
2023-01-02T07:49:49.019Z,100267.56
2023-01-02T07:52:23.661Z,100260.00
2023-01-02T07:54:54.605Z,100261.53
2023-01-02T07:57:26.968Z,100260.41
2023-01-02T07:59:57.982Z,100257.94
2023-01-02T08:02:27.726Z,100255.13
2023-01-02T08:04:56.580Z,100253.59
2023-01-02T08:07:31.542Z,100262.78
2023-01-02T08:10:00.899Z,100250.09
2023-01-02T08:12:41.751Z,100245.28
2023-01-02T08:15:15.224Z,100254.31
2023-01-02T08:17:46.483Z,100240.34
2023-01-02T08:20:15.023Z,100235.56
2023-01-02T08:22:46.800Z,100252.75
2023-01-02T08:25:25.100Z,100250.97
2023-01-02T08:28:03.332Z,100245.19
2023-01-02T08:30:34.773Z,100264.28
2023-01-02T08:33:12.158Z,100274.22
2023-01-02T08:35:44.055Z,100264.88
2023-01-02T08:38:24.231Z,100281.06
2023-01-02T08:40:52.445Z,100270.25
2023-01-02T08:43:23.385Z,100278.69
2023-01-02T08:45:52.368Z,100277.56
2023-01-02T08:48:26.010Z,100275.28
2023-01-02T08:50:56.604Z,100273.56
2023-01-02T08:53:30.489Z,100273.78
2023-01-02T08:56:26.077Z,100285.47
2023-01-02T08:59:10.707Z,100284.72
2023-01-02T09:01:45.042Z,100281.06
2023-01-02T09:04:20.790Z,100291.34
2023-01-02T09:06:49.663Z,100287.66
2023-01-02T09:09:29.523Z,100289.16
2023-01-02T09:12:01.071Z,100287.94
2023-01-02T09:14:32.945Z,100283.75
2023-01-02T09:17:01.687Z,100283.13
2023-01-02T09:19:32.014Z,100270.16
2023-01-02T09:22:02.057Z,100259.19
2023-01-02T09:24:35.043Z,100268.34
2023-01-02T09:27:06.060Z,100265.41
2023-01-02T09:29:49.889Z,100275.75
2023-01-02T09:32:23.561Z,100282.94
2023-01-02T09:34:53.940Z,100279.81
2023-01-02T09:37:24.969Z,100280.47
2023-01-02T09:39:53.744Z,100269.88
2023-01-02T09:42:24.687Z,100266.09
2023-01-02T09:45:03.078Z,100269.72
2023-01-02T09:47:40.404Z,100273.38
2023-01-02T09:50:16.429Z,100273.97
2023-01-02T09:52:59.756Z,100266.22
2023-01-02T09:55:37.407Z,100264.19
2023-01-02T09:58:13.497Z,100250.28
2023-01-02T10:00:55.017Z,100249.34
2023-01-02T10:03:30.497Z,100239.69
2023-01-02T10:06:10.576Z,100238.94
2023-01-02T10:09:09.204Z,100241.34
2023-01-02T10:11:45.753Z,100235.13
2023-01-02T10:14:37.406Z,100235.16
2023-01-02T10:17:21.284Z,100227.09
2023-01-02T10:20:04.842Z,100223.22
2023-01-02T10:22:37.992Z,100222.13
2023-01-02T10:25:22.593Z,100230.34
2023-01-02T10:27:55.084Z,100222.50
2023-01-02T10:30:26.109Z,100209.91
2023-01-02T10:33:03.151Z,100213.44
2023-01-02T10:35:42.002Z,100202.97
2023-01-02T10:38:21.539Z,100200.59
2023-01-02T10:40:52.340Z,100202.53
2023-01-02T10:43:21.043Z,100198.63
2023-01-02T10:45:51.108Z,100201.31
2023-01-02T10:48:31.641Z,100206.03
2023-01-02T10:51:04.813Z,100204.69
2023-01-02T10:53:40.418Z,100198.22
2023-01-02T10:56:22.867Z,100191.97
2023-01-02T10:58:52.503Z,100185.38
2023-01-02T11:01:23.731Z,100191.06
2023-01-02T11:04:15.252Z,100183.59
2023-01-02T11:06:55.807Z,100182.06
2023-01-02T11:09:26.471Z,100176.28
2023-01-02T11:11:56.609Z,100168.38
2023-01-02T11:14:29.740Z,100178.38
2023-01-02T11:17:11.269Z,100171.75
2023-01-02T11:19:49.011Z,100169.47
2023-01-02T11:22:30.095Z,100172.78
2023-01-02T11:25:04.468Z,100170.75
2023-01-02T11:27:36.065Z,100174.19
2023-01-02T11:30:09.446Z,100179.63
2023-01-02T11:32:41.624Z,100173.00
2023-01-02T11:35:39.154Z,100169.63
2023-01-02T11:38:29.383Z,100163.69
2023-01-02T11:41:06.014Z,100168.09
2023-01-02T11:43:53.005Z,100157.00
2023-01-02T11:46:35.888Z,100164.50
2023-01-02T11:49:12.200Z,100154.06
2023-01-02T11:51:46.115Z,100141.63
2023-01-02T11:54:26.104Z,100152.22
2023-01-02T11:57:02.879Z,100155.88
2023-01-02T11:59:40.778Z,100152.81
2023-01-02T12:02:20.761Z,100147.19
2023-01-02T12:04:56.007Z,100149.53
2023-01-02T12:07:48.875Z,100145.63
2023-01-02T12:10:32.255Z,100150.13
2023-01-02T12:13:21.577Z,100146.81
2023-01-02T12:16:12.463Z,100145.56
2023-01-02T12:18:57.850Z,100144.88
2023-01-02T12:21:33.790Z,100153.59
2023-01-02T12:24:28.634Z,100146.78
2023-01-02T12:27:14.094Z,100133.09
2023-01-02T12:30:16.207Z,100131.78
2023-01-02T12:33:11.889Z,100139.66
2023-01-02T12:36:23.177Z,100135.34
2023-01-02T12:39:08.488Z,100133.09
2023-01-02T12:42:01.937Z,100127.59
2023-01-02T12:44:54.748Z,100121.53
2023-01-02T12:47:48.333Z,100126.81
2023-01-02T12:50:57.992Z,100125.91
2023-01-02T12:54:18.835Z,100135.34
2023-01-02T12:57:00.569Z,100144.94
2023-01-02T12:59:45.265Z,100142.50
2023-01-02T13:02:21.067Z,100137.03
2023-01-02T13:05:01.358Z,100142.13
2023-01-02T13:07:35.364Z,100142.66
2023-01-02T13:10:14.134Z,100127.66
2023-01-02T13:12:53.160Z,100126.34
2023-01-02T13:15:29.998Z,100127.88
2023-01-02T13:18:05.036Z,100132.59
2023-01-02T13:20:42.373Z,100125.00
2023-01-02T13:23:28.813Z,100136.75
2023-01-02T13:26:04.601Z,100146.44
2023-01-02T13:28:58.188Z,100136.84
2023-01-02T13:31:46.116Z,100132.03
2023-01-02T13:34:23.168Z,100136.00
2023-01-02T13:37:05.287Z,100134.25
2023-01-02T13:39:47.910Z,100132.13
2023-01-02T13:42:45.077Z,100133.63
2023-01-02T13:45:22.517Z,100137.78
2023-01-02T13:48:04.216Z,100136.41
2023-01-02T13:50:34.598Z,100133.16
2023-01-02T13:53:16.566Z,100128.97
2023-01-02T13:56:17.315Z,100135.75
2023-01-02T13:59:00.123Z,100137.69
2023-01-02T14:02:06.012Z,100130.66
2023-01-02T14:04:45.540Z,100149.09
2023-01-02T14:07:53.567Z,100145.75
2023-01-02T14:10:43.959Z,100149.97
2023-01-02T14:13:30.260Z,100146.25
2023-01-02T14:16:37.290Z,100148.38
2023-01-02T14:19:25.801Z,100149.66
2023-01-02T14:22:19.633Z,100152.59
2023-01-02T14:24:54.336Z,100152.44
2023-01-02T14:27:26.499Z,100151.91
2023-01-02T14:29:59.635Z,100157.00
2023-01-02T14:32:38.002Z,100151.53
2023-01-02T14:35:10.947Z,100148.78
2023-01-02T14:37:46.695Z,100145.47
2023-01-02T14:40:22.954Z,100152.53
2023-01-02T14:43:12.351Z,100154.78
2023-01-02T14:45:43.736Z,100142.69
2023-01-02T14:48:28.703Z,100150.34
2023-01-02T14:51:05.762Z,100148.34
2023-01-02T14:53:40.807Z,100154.00
2023-01-02T14:56:16.127Z,100156.06
2023-01-02T14:58:49.234Z,100152.53
2023-01-02T15:01:42.195Z,100153.00
2023-01-02T15:04:22.443Z,100148.25
2023-01-02T15:06:58.255Z,100155.69
2023-01-02T15:09:46.371Z,100156.44
2023-01-02T15:12:41.641Z,100162.28
2023-01-02T15:15:14.164Z,100146.84
2023-01-02T15:17:51.493Z,100150.78
2023-01-02T15:20:25.766Z,100154.97
2023-01-02T15:22:55.331Z,100154.16
2023-01-02T15:25:40.737Z,100153.66
2023-01-02T15:28:27.250Z,100165.38
2023-01-02T15:31:04.927Z,100166.31
2023-01-02T15:33:40.457Z,100175.97
2023-01-02T15:36:15.830Z,100179.56
2023-01-02T15:38:46.036Z,100187.50
2023-01-02T15:41:22.247Z,100184.38
2023-01-02T15:44:17.142Z,100181.34
2023-01-02T15:46:50.953Z,100189.03
2023-01-02T15:49:25.835Z,100186.16
2023-01-02T15:51:59.738Z,100189.69
2023-01-02T15:54:40.098Z,100197.47
2023-01-02T15:57:23.304Z,100205.59
2023-01-02T16:00:04.400Z,100194.69
2023-01-02T16:02:54.082Z,100207.09
2023-01-02T16:05:31.964Z,100191.88
2023-01-02T16:08:09.843Z,100202.88
2023-01-02T16:10:38.882Z,100200.47
2023-01-02T16:13:39.535Z,100206.66
2023-01-02T16:16:15.494Z,100200.56
2023-01-02T16:18:53.111Z,100199.72
2023-01-02T16:21:32.409Z,100208.03
2023-01-02T16:24:04.803Z,100214.66
2023-01-02T16:26:41.195Z,100207.72
2023-01-02T16:29:17.556Z,100202.75
2023-01-02T16:32:00.469Z,100202.84
2023-01-02T16:34:34.509Z,100203.44
2023-01-02T16:37:43.305Z,100211.69
2023-01-02T16:41:02.912Z,100204.16
2023-01-02T16:43:39.602Z,100209.97
2023-01-02T16:46:26.992Z,100214.56
2023-01-02T16:49:01.375Z,100202.72
2023-01-02T16:51:36.666Z,100211.72
2023-01-02T16:54:10.832Z,100216.41
2023-01-02T16:56:39.935Z,100227.09
2023-01-02T16:59:12.743Z,100226.59
2023-01-02T17:01:46.866Z,100221.66
2023-01-02T17:04:24.358Z,100236.56
2023-01-02T17:06:55.261Z,100241.66
2023-01-02T17:09:31.302Z,100260.69
2023-01-02T17:12:10.729Z,100271.44
2023-01-02T17:14:39.328Z,100269.16
2023-01-02T17:17:24.467Z,100272.00
2023-01-02T17:19:57.356Z,100278.59
2023-01-02T17:22:35.466Z,100292.72
2023-01-02T17:25:06.195Z,100286.47
2023-01-02T17:27:41.381Z,100292.22
2023-01-02T17:30:21.734Z,100290.31
2023-01-02T17:33:03.944Z,100299.75
2023-01-02T17:35:44.875Z,100303.38
2023-01-02T17:38:15.954Z,100304.97
2023-01-02T17:40:44.410Z,100320.69
2023-01-02T17:43:16.454Z,100308.78
2023-01-02T17:45:47.055Z,100321.19
2023-01-02T17:48:32.377Z,100334.28
2023-01-02T17:51:04.285Z,100335.25
2023-01-02T17:53:41.912Z,100331.16
2023-01-02T17:56:21.572Z,100336.56
2023-01-02T17:58:53.264Z,100342.28
2023-01-02T18:01:23.904Z,100338.72
2023-01-02T18:03:56.622Z,100336.16
2023-01-02T18:06:26.143Z,100340.44
2023-01-02T18:09:05.457Z,100343.56
2023-01-02T18:11:42.938Z,100346.75
2023-01-02T18:14:22.022Z,100357.03
2023-01-02T18:16:57.021Z,100351.41
2023-01-02T18:19:34.391Z,100350.22
2023-01-02T18:22:10.423Z,100364.16
2023-01-02T18:24:41.817Z,100361.22
2023-01-02T18:27:33.057Z,100370.19
2023-01-02T18:30:14.650Z,100390.38
2023-01-02T18:32:47.894Z,100376.84
2023-01-02T18:35:56.635Z,100387.44
2023-01-02T18:38:25.385Z,100390.38
2023-01-02T18:41:05.977Z,100400.31
2023-01-02T18:43:37.100Z,100394.53
2023-01-02T18:46:16.567Z,100400.50
2023-01-02T18:48:47.391Z,100426.00
2023-01-02T18:51:36.823Z,100415.25
2023-01-02T18:54:19.921Z,100415.25
2023-01-02T18:56:51.527Z,100422.13
2023-01-02T18:59:31.233Z,100428.22
2023-01-02T19:02:06.242Z,100423.84
2023-01-02T19:04:42.019Z,100429.06
2023-01-02T19:07:35.480Z,100424.13
2023-01-02T19:10:21.304Z,100419.22
2023-01-02T19:13:10.247Z,100424.31
2023-01-02T19:15:45.210Z,100419.94
2023-01-02T19:18:36.125Z,100414.88
2023-01-02T19:21:25.694Z,100416.19
2023-01-02T19:24:01.004Z,100414.59
2023-01-02T19:26:38.006Z,100408.44
2023-01-02T19:29:19.953Z,100410.78
2023-01-02T19:31:54.872Z,100390.47
2023-01-02T19:34:42.310Z,100387.72
2023-01-02T19:37:28.383Z,100389.53
2023-01-02T19:40:03.314Z,100377.78
2023-01-02T19:42:42.770Z,100388.00
2023-01-02T19:45:22.827Z,100384.81
2023-01-02T19:48:01.885Z,100388.94
2023-01-02T19:50:30.629Z,100398.31
2023-01-02T19:53:01.371Z,100393.94
2023-01-02T19:55:33.577Z,100412.41
2023-01-02T19:58:04.802Z,100393.69
2023-01-02T20:00:41.505Z,100412.22
2023-01-02T20:03:18.088Z,100404.66
2023-01-02T20:05:50.483Z,100405.59
2023-01-02T20:08:24.207Z,100407.19
2023-01-02T20:11:00.833Z,100401.72
2023-01-02T20:13:35.588Z,100391.91
2023-01-02T20:16:06.827Z,100403.91
2023-01-02T20:18:50.280Z,100406.91
2023-01-02T20:21:22.235Z,100407.69
2023-01-02T20:23:56.583Z,100407.19
2023-01-02T20:26:41.890Z,100407.00
2023-01-02T20:29:11.088Z,100404.72
2023-01-02T20:31:47.985Z,100410.72
2023-01-02T20:34:26.511Z,100389.81
2023-01-02T20:36:56.987Z,100393.97
2023-01-02T20:39:27.993Z,100386.38
2023-01-02T20:42:00.907Z,100395.94
2023-01-02T20:44:33.465Z,100389.53
2023-01-02T20:47:19.991Z,100381.94
2023-01-02T20:49:51.270Z,100397.56
2023-01-02T20:52:34.186Z,100390.81
2023-01-02T20:55:07.234Z,100398.56
2023-01-02T20:57:54.706Z,100394.91
2023-01-02T21:00:35.484Z,100389.72
2023-01-02T21:03:06.450Z,100400.75
2023-01-02T21:05:41.165Z,100397.94
2023-01-02T21:08:16.669Z,100392.63
2023-01-02T21:10:48.031Z,100389.59
2023-01-02T21:13:20.061Z,100407.00
2023-01-02T21:15:52.724Z,100402.84
2023-01-02T21:18:25.488Z,100409.19
2023-01-02T21:21:11.683Z,100402.19
2023-01-02T21:23:46.353Z,100420.53
2023-01-02T21:26:20.205Z,100418.56
2023-01-02T21:28:53.282Z,100429.44
2023-01-02T21:31:22.769Z,100438.81
2023-01-02T21:33:51.609Z,100445.59
2023-01-02T21:36:31.688Z,100441.34
2023-01-02T21:39:01.549Z,100450.97
2023-01-02T21:41:47.252Z,100442.00
2023-01-02T21:44:21.026Z,100444.72
2023-01-02T21:46:50.783Z,100448.16
2023-01-02T21:49:21.704Z,100447.69
2023-01-02T21:51:58.634Z,100441.22
2023-01-02T21:54:34.714Z,100442.50
2023-01-02T21:57:06.960Z,100437.56
2023-01-02T21:59:39.541Z,100453.53
2023-01-02T22:02:22.249Z,100448.97
2023-01-02T22:05:05.575Z,100451.16
2023-01-02T22:07:39.338Z,100441.19
2023-01-02T22:10:12.989Z,100440.06
2023-01-02T22:12:45.642Z,100446.84
2023-01-02T22:15:18.951Z,100443.31
2023-01-02T22:17:50.833Z,100441.81
2023-01-02T22:20:21.491Z,100443.69
2023-01-02T22:22:51.155Z,100443.50
2023-01-02T22:25:19.674Z,100450.03
2023-01-02T22:27:58.056Z,100448.88
2023-01-02T22:30:34.877Z,100439.63
2023-01-02T22:33:05.759Z,100445.28
2023-01-02T22:35:37.052Z,100442.06
2023-01-02T22:38:06.609Z,100447.66
2023-01-02T22:40:36.853Z,100448.44
2023-01-02T22:43:06.705Z,100437.59
2023-01-02T22:45:45.727Z,100457.78
2023-01-02T22:48:24.314Z,100461.25
2023-01-02T22:50:57.052Z,100454.16
2023-01-02T22:53:29.033Z,100457.09
2023-01-02T22:55:59.547Z,100455.13
2023-01-02T22:58:30.923Z,100460.91
2023-01-02T23:01:11.603Z,100457.94
2023-01-02T23:03:48.516Z,100467.97
2023-01-02T23:06:22.463Z,100455.91
2023-01-02T23:08:52.780Z,100461.09
2023-01-02T23:11:23.015Z,100458.50
2023-01-02T23:13:56.251Z,100446.44
2023-01-02T23:16:45.792Z,100459.94
2023-01-02T23:19:21.903Z,100455.22
2023-01-02T23:21:54.855Z,100457.09
2023-01-02T23:24:28.455Z,100459.38
2023-01-02T23:27:07.493Z,100452.13
2023-01-02T23:29:47.528Z,100452.91
2023-01-02T23:32:19.547Z,100446.91
2023-01-02T23:34:50.510Z,100450.75
2023-01-02T23:40:04.863Z,100452.38
2023-01-02T23:42:33.437Z,100459.66
2023-01-02T23:45:11.671Z,100447.88
2023-01-02T23:47:49.045Z,100444.19
2023-01-02T23:50:19.441Z,100446.19
2023-01-02T23:52:48.535Z,100446.88
2023-01-02T23:55:18.057Z,100450.09
2023-01-02T23:57:49.797Z,100442.56
